Time;durP1;ratioP1;P1;durP2;ratioP2;P2;SDS_P1;SDS_P2;PMS_P1;PMS_P2;Temp;Humidity;BMP_temperature;BMP_pressure;BME280_temperature;BME280_humidity;BME280_pressure;Samples;Min_cycle;Max_cycle;Signal;HPM_P1;HPM_P2
2023/01/11 00:00:20;;;;;;;1.10;0.77;;;9.50;92.30;;;;;;5152639;28;20035;-78
2023/01/11 00:02:47;;;;;;;1.65;0.90;;;9.60;92.30;;;;;;5150826;28;20077;-80
2023/01/11 00:05:12;;;;;;;1.27;0.98;;;9.60;92.30;;;;;;5129843;28;20068;-79
2023/01/11 00:07:39;;;;;;;2.05;0.90;;;9.60;92.30;;;;;;5111611;28;20398;-78
2023/01/11 00:10:06;;;;;;;0.77;0.70;;;9.70;92.60;;;;;;5147415;28;20047;-78
2023/01/11 00:12:32;;;;;;;1.52;0.85;;;9.70;92.30;;;;;;5148766;28;20099;-78
2023/01/11 00:14:57;;;;;;;1.35;0.90;;;9.70;92.30;;;;;;5112250;28;20039;-79
2023/01/11 00:17:23;;;;;;;1.60;1.05;;;9.80;92.30;;;;;;5130615;28;20043;-79
2023/01/11 00:19:49;;;;;;;1.20;0.90;;;9.80;92.30;;;;;;5112661;28;20418;-79
2023/01/11 00:22:14;;;;;;;1.98;1.00;;;9.80;92.30;;;;;;5150305;28;20039;-79
2023/01/11 00:24:40;;;;;;;1.02;0.90;;;9.80;92.30;;;;;;5149378;28;20055;-79
2023/01/11 00:27:06;;;;;;;1.52;0.90;;;9.90;92.30;;;;;;5149171;28;20047;-79
2023/01/11 00:29:31;;;;;;;1.27;0.73;;;9.90;92.20;;;;;;5149502;28;20090;-79
2023/01/11 00:31:57;;;;;;;0.68;0.65;;;9.90;92.20;;;;;;5144749;28;20035;-79
2023/01/11 00:34:22;;;;;;;3.22;1.08;;;9.80;92.20;;;;;;5129637;27;20040;-79
2023/01/11 00:36:48;;;;;;;1.00;0.80;;;9.90;92.30;;;;;;5114637;28;20501;-79
2023/01/11 00:39:14;;;;;;;0.80;0.80;;;9.90;92.30;;;;;;5117939;28;20390;-80
2023/01/11 00:49:37;;;;;;;1.60;0.98;;;10.10;92.30;;;;;;5115865;28;20401;-80
2023/01/11 00:52:07;;;;;;;2.50;1.15;;;10.10;92.30;;;;;;5149300;28;20107;-81
2023/01/11 00:54:35;;;;;;;1.97;1.27;;;10.20;92.30;;;;;;5132352;28;20074;-80
2023/01/11 00:57:01;;;;;;;1.40;1.00;;;10.10;92.30;;;;;;5149263;28;20130;-80
2023/01/11 00:59:26;;;;;;;1.30;1.00;;;10.20;92.30;;;;;;5150802;28;20038;-80
2023/01/11 01:01:52;;;;;;;1.58;1.20;;;10.10;92.30;;;;;;5102308;28;20102;-79
2023/01/11 01:04:17;;;;;;;1.40;0.90;;;10.30;92.30;;;;;;5120935;28;20043;-79
2023/01/11 01:06:43;;;;;;;2.15;1.10;;;10.20;92.30;;;;;;5119897;28;20027;-79
2023/01/11 01:09:09;;;;;;;1.48;0.95;;;10.20;92.30;;;;;;5153330;28;20043;-79
2023/01/11 01:11:35;;;;;;;1.95;0.80;;;10.20;92.40;;;;;;5147207;28;20098;-80
2023/01/11 01:16:41;;;;;;;1.05;0.80;;;10.20;92.40;;;;;;5131256;28;20061;-80
2023/01/11 01:19:07;;;;;;;1.73;1.02;;;10.20;92.40;;;;;;5128886;28;20405;-80
2023/01/11 01:21:33;;;;;;;1.95;0.90;;;10.20;92.40;;;;;;5111733;28;20050;-79
2023/01/11 01:23:58;;;;;;;0.60;0.60;;;10.30;92.50;;;;;;5094202;28;20039;-80
2023/01/11 01:26:24;;;;;;;1.13;0.82;;;10.20;92.50;;;;;;5111965;28;20047;-79
2023/01/11 01:28:50;;;;;;;1.10;0.77;;;10.30;92.50;;;;;;5109561;28;20147;-80
2023/01/11 01:31:16;;;;;;;1.15;0.80;;;10.30;92.50;;;;;;5112239;28;20053;-79
2023/01/11 01:33:42;;;;;;;1.33;0.80;;;10.20;92.50;;;;;;5094889;28;20035;-80
2023/01/11 01:36:08;;;;;;;1.23;0.88;;;10.30;92.50;;;;;;5093531;28;20015;-79
2023/01/11 01:38:34;;;;;;;0.90;0.80;;;10.30;92.50;;;;;;5144773;28;20046;-79
2023/01/11 01:41:00;;;;;;;0.90;0.70;;;10.30;92.50;;;;;;5110579;28;20062;-79
2023/01/11 01:43:57;;;;;;;0.80;0.80;;;10.30;92.50;;;;;;5109652;28;20050;-80
2023/01/11 01:46:27;;;;;;;1.35;0.90;;;10.30;92.60;;;;;;5126090;28;20398;-79
2023/01/11 01:49:00;;;;;;;1.13;0.80;;;10.30;92.60;;;;;;5127801;28;20064;-79
2023/01/11 01:51:40;;;;;;;0.80;0.70;;;10.30;92.60;;;;;;5145232;28;20039;-79
2023/01/11 01:54:09;;;;;;;0.63;0.63;;;10.30;92.60;;;;;;5110854;28;20027;-79
2023/01/11 01:56:45;;;;;;;1.13;0.70;;;10.40;92.60;;;;;;5125141;28;20039;-79
2023/01/11 01:59:13;;;;;;;0.82;0.70;;;10.40;92.60;;;;;;5109234;28;20043;-79
2023/01/11 02:01:47;;;;;;;0.88;0.80;;;10.40;92.60;;;;;;5127591;28;20066;-80
2023/01/11 02:04:23;;;;;;;1.85;0.70;;;10.50;92.70;;;;;;5126224;28;20035;-80
2023/01/11 02:06:51;;;;;;;1.10;0.90;;;10.40;92.70;;;;;;5134107;28;20043;-79
2023/01/11 02:09:39;;;;;;;0.70;0.57;;;10.50;92.70;;;;;;5149773;28;20034;-78
2023/01/11 02:12:06;;;;;;;0.60;0.60;;;10.40;92.70;;;;;;5129977;28;20050;-80
2023/01/11 02:14:36;;;;;;;0.85;0.75;;;10.50;92.70;;;;;;5129030;28;20063;-79
2023/01/11 02:17:02;;;;;;;1.23;0.70;;;10.40;92.70;;;;;;5112627;28;20099;-78
2023/01/11 02:19:46;;;;;;;0.68;0.60;;;10.40;92.70;;;;;;5129926;28;20039;-79
2023/01/11 02:22:31;;;;;;;0.98;0.80;;;10.50;92.70;;;;;;5126332;28;20191;-80
2023/01/11 02:25:33;;;;;;;0.90;0.75;;;10.40;92.70;;;;;;5130422;28;20046;-80
2023/01/11 02:28:11;;;;;;;;;;;10.50;92.80;;;;;;5112960;28;20482;-80
2023/01/11 02:30:52;;;;;;;0.40;0.40;;;10.40;92.70;;;;;;5148905;28;19911;-79
2023/01/11 02:33:31;;;;;;;0.68;0.68;;;10.50;92.80;;;;;;5117955;27;20043;-78
2023/01/11 02:36:14;;;;;;;0.57;0.57;;;10.50;92.80;;;;;;5140540;28;20062;-79
2023/01/11 02:38:47;;;;;;;0.50;0.50;;;10.50;92.80;;;;;;5120850;28;20051;-79
2023/01/11 02:41:25;;;;;;;0.95;0.47;;;10.50;92.80;;;;;;5139880;28;20079;-78
2023/01/11 02:46:53;;;;;;;0.60;0.50;;;10.60;92.80;;;;;;5138783;28;20039;-78
2023/01/11 02:49:43;;;;;;;0.95;0.50;;;10.60;92.90;;;;;;5120659;28;20026;-79
2023/01/11 02:52:19;;;;;;;0.80;0.70;;;10.60;92.90;;;;;;5132068;28;20054;-80
2023/01/11 02:54:52;;;;;;;0.88;0.63;;;10.60;92.90;;;;;;5133525;28;20026;-80
2023/01/11 02:57:19;;;;;;;0.60;0.52;;;10.60;92.90;;;;;;5136724;28;20046;-79
2023/01/11 02:59:47;;;;;;;0.50;0.50;;;10.60;92.90;;;;;;5116949;28;20050;-79
2023/01/11 03:02:13;;;;;;;0.77;0.60;;;10.70;92.90;;;;;;5116156;28;20026;-80
2023/01/11 03:04:39;;;;;;;0.50;0.50;;;10.70;92.90;;;;;;5114820;28;20050;-80
2023/01/11 03:07:26;;;;;;;0.47;0.47;;;10.70;92.90;;;;;;5116114;27;20031;-79
2023/01/11 03:10:15;;;;;;;1.17;0.77;;;10.70;92.90;;;;;;5091222;28;20044;-79
2023/01/11 03:13:05;;;;;;;0.60;0.60;;;10.70;92.90;;;;;;5073433;28;20043;-79
2023/01/11 03:15:54;;;;;;;0.70;0.70;;;10.70;92.90;;;;;;5075462;28;20056;-78
2023/01/11 03:18:50;;;;;;;0.60;0.60;;;10.80;93.00;;;;;;5089414;28;20045;-79
2023/01/11 03:21:31;;;;;;;0.75;0.50;;;10.80;93.00;;;;;;5070195;28;20087;-80
2023/01/11 03:24:20;;;;;;;0.50;0.50;;;10.70;93.00;;;;;;5087688;28;20053;-79
2023/01/11 03:27:02;;;;;;;0.43;0.43;;;10.80;93.00;;;;;;5071005;28;20048;-78
2023/01/11 03:29:35;;;;;;;0.55;0.52;;;10.80;93.00;;;;;;5068848;28;20036;-80
2023/01/11 03:32:16;;;;;;;0.50;0.50;;;10.80;93.00;;;;;;5066854;28;20533;-79
2023/01/11 03:34:56;;;;;;;0.50;0.50;;;10.80;93.00;;;;;;5033847;28;20056;-79
2023/01/11 03:37:31;;;;;;;0.43;0.43;;;10.90;93.00;;;;;;5049874;28;20044;-78
2023/01/11 03:40:10;;;;;;;0.93;0.45;;;10.90;93.00;;;;;;5081919;28;20039;-78
2023/01/11 03:43:09;;;;;;;0.60;0.60;;;10.90;93.00;;;;;;5124120;28;20066;-79
2023/01/11 03:45:27;;;;;;;0.80;0.60;;;10.90;93.00;;;;;;5128638;28;20119;-80
2023/01/11 03:47:54;;;;;;;1.23;0.70;;;10.90;93.00;;;;;;5105920;28;20047;-80
2023/01/11 03:50:21;;;;;;;0.40;0.40;;;11.00;93.10;;;;;;5143234;28;20166;-80
2023/01/11 03:52:48;;;;;;;0.38;0.38;;;10.90;93.10;;;;;;5107228;28;20043;-79
2023/01/11 03:55:23;;;;;;;0.30;0.30;;;10.90;93.10;;;;;;5124584;28;20063;-80
2023/01/11 03:57:50;;;;;;;0.32;0.32;;;11.00;93.10;;;;;;5050884;28;20044;-78
2023/01/11 04:00:36;;;;;;;0.35;0.35;;;11.00;93.10;;;;;;5085303;28;20044;-79
2023/01/11 04:03:01;;;;;;;0.30;0.30;;;11.00;93.10;;;;;;5042117;28;20437;-78
2023/01/11 04:05:27;;;;;;;0.38;0.30;;;10.90;93.10;;;;;;5023452;28;20042;-79
2023/01/11 04:08:26;;;;;;;0.52;0.40;;;11.00;93.10;;;;;;5041232;28;20476;-79
2023/01/11 04:10:51;;;;;;;0.40;0.40;;;11.00;93.10;;;;;;5005952;28;20595;-79
2023/01/11 04:13:32;;;;;;;0.73;0.63;;;11.00;93.10;;;;;;5006217;28;20156;-78
2023/01/11 04:16:07;;;;;;;0.30;0.30;;;11.10;93.20;;;;;;5006815;28;20042;-79
2023/01/11 04:18:58;;;;;;;0.60;0.50;;;11.10;93.20;;;;;;4929574;29;20073;-79
2023/01/11 04:21:44;;;;;;;0.50;0.50;;;11.10;93.20;;;;;;4857720;29;20088;-79
2023/01/11 04:24:13;;;;;;;0.28;0.28;;;11.10;93.20;;;;;;4853135;29;20045;-79
2023/01/11 04:26:39;;;;;;;1.02;0.40;;;11.10;93.20;;;;;;4886480;29;20049;-79
2023/01/11 04:29:05;;;;;;;0.30;0.30;;;11.10;93.20;;;;;;4924167;29;20043;-79
2023/01/11 04:31:31;;;;;;;0.98;0.65;;;11.20;93.20;;;;;;4941827;29;20036;-80
2023/01/11 04:33:56;;;;;;;0.70;0.45;;;11.20;93.20;;;;;;4925545;29;20036;-79
2023/01/11 04:36:24;;;;;;;0.52;0.45;;;11.20;93.20;;;;;;4925833;29;20403;-80
2023/01/11 04:38:50;;;;;;;0.60;0.40;;;11.20;93.20;;;;;;4927907;29;20076;-79
2023/01/11 04:43:56;;;;;;;0.90;0.60;;;11.30;93.20;;;;;;5014472;28;20058;-79
2023/01/11 04:46:22;;;;;;;0.60;0.60;;;11.20;93.20;;;;;;5000921;28;20033;-80
2023/01/11 04:48:48;;;;;;;0.73;0.50;;;11.30;93.20;;;;;;5035208;28;20099;-80
2023/01/11 04:51:14;;;;;;;0.63;0.63;;;11.30;93.20;;;;;;5106532;28;20015;-79
2023/01/11 04:53:40;;;;;;;0.60;0.60;;;11.30;93.20;;;;;;5139965;28;20043;-79
2023/01/11 04:56:10;;;;;;;0.50;0.50;;;11.30;93.20;;;;;;5104411;28;20050;-79
2023/01/11 04:58:36;;;;;;;0.55;0.50;;;11.30;93.20;;;;;;5091245;28;20127;-80
2023/01/11 05:01:16;;;;;;;0.60;0.60;;;11.30;93.30;;;;;;5072560;28;20044;-79
2023/01/11 05:03:43;;;;;;;0.93;0.60;;;11.40;93.30;;;;;;5072126;28;20044;-80
2023/01/11 05:06:08;;;;;;;0.57;0.52;;;11.30;93.30;;;;;;5071339;28;20070;-80
2023/01/11 05:08:34;;;;;;;0.80;0.65;;;11.30;93.30;;;;;;5036413;28;20048;-79
2023/01/11 05:11:04;;;;;;;0.70;0.70;;;11.40;93.30;;;;;;5069434;28;20064;-79
2023/01/11 05:16:13;;;;;;;1.45;0.90;;;11.40;93.60;;;;;;5069499;28;20405;-79
2023/01/11 05:18:41;;;;;;;1.02;0.93;;;11.40;93.30;;;;;;5082578;28;20550;-79
2023/01/11 05:21:07;;;;;;;1.00;0.90;;;11.40;93.30;;;;;;5064321;28;20072;-79
2023/01/11 05:23:35;;;;;;;0.90;0.90;;;11.40;93.30;;;;;;5082851;28;20440;-80
2023/01/11 05:26:04;;;;;;;1.00;0.90;;;11.40;93.30;;;;;;5083275;28;20052;-79
2023/01/11 05:28:30;;;;;;;1.27;0.95;;;11.40;93.30;;;;;;5074042;28;20052;-79
2023/01/11 05:30:56;;;;;;;1.40;1.08;;;11.40;93.30;;;;;;5147640;28;20035;-79
2023/01/11 05:33:21;;;;;;;1.08;0.95;;;11.40;93.30;;;;;;5127652;28;20039;-79
2023/01/11 05:35:47;;;;;;;1.33;1.00;;;11.40;93.40;;;;;;5125139;28;20058;-79
2023/01/11 05:38:12;;;;;;;1.88;1.20;;;11.40;93.40;;;;;;5108059;28;20490;-80
2023/01/11 05:40:38;;;;;;;1.98;1.20;;;11.40;93.40;;;;;;5106177;28;20046;-80
2023/01/11 05:43:04;;;;;;;1.60;1.00;;;11.40;93.40;;;;;;5123253;28;20532;-81
2023/01/11 05:45:32;;;;;;;0.90;0.82;;;11.40;93.40;;;;;;5106699;28;20043;-81
2023/01/11 05:47:58;;;;;;;2.30;1.15;;;11.40;93.40;;;;;;5123144;28;20043;-81
2023/01/11 05:50:24;;;;;;;0.95;0.73;;;11.40;93.40;;;;;;5141819;28;20039;-81
2023/01/11 05:52:50;;;;;;;1.50;1.00;;;11.30;93.40;;;;;;5123856;28;20044;-82
2023/01/11 05:55:16;;;;;;;1.48;1.02;;;11.30;93.40;;;;;;5122750;28;20551;-80
2023/01/11 05:57:42;;;;;;;1.15;0.90;;;11.40;93.40;;;;;;5105317;28;20375;-79
2023/01/11 06:00:10;;;;;;;1.95;1.02;;;11.40;93.40;;;;;;5105312;28;20117;-79
2023/01/11 06:02:35;;;;;;;1.02;0.93;;;11.40;93.50;;;;;;5121123;28;20129;-79
2023/01/11 06:05:01;;;;;;;1.70;1.00;;;11.40;93.40;;;;;;5103875;28;20509;-79
2023/01/11 06:07:27;;;;;;;3.72;1.30;;;11.30;93.40;;;;;;5120782;28;20114;-80
2023/01/11 06:09:52;;;;;;;2.30;1.05;;;11.30;93.40;;;;;;5141711;28;20421;-80
2023/01/11 06:12:18;;;;;;;1.63;1.13;;;11.30;93.40;;;;;;5108068;28;20523;-79
2023/01/11 06:14:44;;;;;;;1.73;1.23;;;11.30;93.40;;;;;;5154049;27;20053;-80
2023/01/11 06:17:09;;;;;;;1.73;1.00;;;11.30;93.40;;;;;;5113187;28;20043;-80
2023/01/11 06:19:35;;;;;;;3.28;1.00;;;11.30;93.40;;;;;;5131988;28;20045;-84
2023/01/11 06:22:01;;;;;;;1.67;1.00;;;11.20;93.40;;;;;;5095941;27;20034;-78
2023/01/11 06:24:27;;;;;;;2.50;1.00;;;11.20;93.50;;;;;;5125533;27;20035;-79
2023/01/11 06:26:57;;;;;;;2.78;1.00;;;11.10;93.50;;;;;;5142625;27;20098;-80
2023/01/11 06:29:22;;;;;;;2.80;1.05;;;11.10;93.50;;;;;;5108985;27;20051;-79
2023/01/11 06:31:48;;;;;;;2.65;1.17;;;11.10;93.50;;;;;;5169037;22;20024;-80
2023/01/11 06:34:17;;;;;;;3.42;1.00;;;11.00;93.50;;;;;;5083430;28;20509;-80
2023/01/11 06:36:43;;;;;;;2.47;0.80;;;11.00;93.50;;;;;;5075485;28;20055;-80
2023/01/11 06:39:12;;;;;;;4.47;1.10;;;11.10;93.60;;;;;;5042706;28;20100;-80
2023/01/11 06:41:38;;;;;;;2.97;0.90;;;11.00;93.50;;;;;;4999873;28;20030;-81
2023/01/11 06:44:05;;;;;;;2.75;1.02;;;11.00;93.50;;;;;;5000685;28;20057;-80
2023/01/11 06:46:31;;;;;;;4.10;1.00;;;11.00;93.50;;;;;;4960837;28;20058;-80
2023/01/11 06:48:58;;;;;;;2.78;1.00;;;11.00;93.50;;;;;;4923271;29;20044;-80
2023/01/11 06:51:23;;;;;;;3.38;0.93;;;11.00;93.50;;;;;;4900683;29;20071;-80
2023/01/11 06:53:58;;;;;;;3.92;0.93;;;10.90;93.50;;;;;;4887424;29;20045;-80
2023/01/11 06:56:24;;;;;;;4.22;0.80;;;10.90;93.50;;;;;;4877038;29;20161;-80
2023/01/11 06:58:53;;;;;;;2.95;0.73;;;10.90;93.50;;;;;;4874583;29;20095;-80
2023/01/11 07:01:23;;;;;;;4.85;1.13;;;10.90;93.50;;;;;;4877994;29;20075;-79
2023/01/11 07:03:52;;;;;;;3.77;1.00;;;10.80;93.40;;;;;;4868051;29;20050;-80
2023/01/11 07:06:18;;;;;;;4.35;1.10;;;10.80;93.50;;;;;;4871752;29;20306;-80
2023/01/11 07:08:43;;;;;;;2.75;0.85;;;10.80;93.40;;;;;;4842192;29;20060;-80
2023/01/11 07:11:09;;;;;;;3.03;0.80;;;10.80;93.40;;;;;;4857654;29;20038;-81
2023/01/11 07:13:35;;;;;;;4.10;1.02;;;10.80;93.40;;;;;;4904783;29;20028;-80
2023/01/11 07:16:00;;;;;;;3.47;1.13;;;10.70;93.40;;;;;;4927985;29;20083;-81
2023/01/11 07:18:26;;;;;;;1.73;0.60;;;10.70;93.40;;;;;;4924869;29;20047;-82
2023/01/11 07:20:52;;;;;;;4.20;1.20;;;10.80;93.40;;;;;;4995140;28;20062;-81
2023/01/11 07:23:17;;;;;;;6.63;1.10;;;10.70;93.40;;;;;;5040881;28;20053;-80
2023/01/11 07:25:43;;;;;;;3.15;0.82;;;10.60;93.70;;;;;;5063484;28;20041;-80
2023/01/11 07:28:09;;;;;;;2.95;0.85;;;10.60;93.40;;;;;;5046000;28;20037;-80
2023/01/11 07:30:37;;;;;;;4.30;0.85;;;10.60;93.40;;;;;;5028848;28;20123;-80
2023/01/11 07:33:05;;;;;;;3.00;1.00;;;10.60;93.40;;;;;;5046331;28;20059;-80
2023/01/11 07:35:30;;;;;;;3.47;0.82;;;10.60;93.40;;;;;;5064104;28;20056;-80
2023/01/11 07:37:56;;;;;;;2.10;0.80;;;10.50;93.40;;;;;;5057124;28;20052;-80
2023/01/11 07:40:22;;;;;;;4.32;1.00;;;10.50;93.40;;;;;;5086493;28;20052;-82
2023/01/11 07:45:31;;;;;;;4.97;1.23;;;10.40;93.40;;;;;;5093860;28;20039;-82
2023/01/11 07:47:57;;;;;;;4.97;1.00;;;10.40;93.40;;;;;;5076462;28;20074;-81
2023/01/11 07:50:23;;;;;;;3.95;1.08;;;10.50;93.40;;;;;;5109104;28;20024;-82
2023/01/11 07:52:49;;;;;;;2.50;0.90;;;10.30;93.40;;;;;;5087641;28;20093;-82
2023/01/11 07:55:15;;;;;;;3.60;1.02;;;10.30;93.40;;;;;;5070114;28;20108;-82
2023/01/11 07:57:41;;;;;;;5.68;1.08;;;10.30;93.30;;;;;;5086468;28;20020;-82
2023/01/11 08:00:08;;;;;;;2.55;0.90;;;10.30;93.30;;;;;;5069599;28;20381;-83
2023/01/11 08:02:33;;;;;;;6.30;0.90;;;10.20;93.30;;;;;;5078575;28;20552;-82
2023/01/11 08:04:59;;;;;;;2.08;0.80;;;10.20;93.40;;;;;;5093023;28;20067;-81
2023/01/11 08:07:24;;;;;;;3.13;0.90;;;10.10;93.40;;;;;;5093103;28;20040;-82
2023/01/11 08:09:50;;;;;;;1.55;0.57;;;10.10;93.30;;;;;;5080939;28;20043;-82
2023/01/11 08:14:55;;;;;;;2.45;0.80;;;10.00;93.30;;;;;;5086796;28;20051;-80
2023/01/11 08:17:20;;;;;;;2.17;0.60;;;9.90;93.40;;;;;;5068934;28;20028;-77
2023/01/11 08:19:46;;;;;;;3.22;0.93;;;9.90;93.40;;;;;;5076912;28;20440;-78
2023/01/11 08:22:11;;;;;;;3.05;0.70;;;9.90;93.40;;;;;;5096480;28;20043;-78
2023/01/11 08:24:37;;;;;;;4.57;1.08;;;9.80;93.40;;;;;;5083135;28;20040;-79
2023/01/11 08:27:03;;;;;;;2.92;0.95;;;9.80;93.40;;;;;;5098107;28;20525;-79
2023/01/11 08:29:29;;;;;;;4.70;0.93;;;9.80;93.40;;;;;;5103078;28;20063;-78
2023/01/11 08:31:55;;;;;;;2.30;0.70;;;9.80;93.40;;;;;;5102712;28;20048;-77
2023/01/11 08:34:22;;;;;;;1.75;0.70;;;9.70;93.40;;;;;;5078246;28;20036;-77
2023/01/11 08:36:47;;;;;;;2.13;1.08;;;9.80;93.40;;;;;;5059118;28;20491;-76
2023/01/11 08:39:13;;;;;;;4.22;0.95;;;9.80;93.30;;;;;;5100303;28;20043;-76
2023/01/11 08:41:38;;;;;;;3.30;0.60;;;9.80;93.30;;;;;;5076867;28;20036;-75
2023/01/11 08:44:04;;;;;;;2.00;0.75;;;9.80;93.30;;;;;;5063020;28;20044;-75
2023/01/11 08:46:32;;;;;;;2.75;0.60;;;9.80;93.30;;;;;;5075859;28;20450;-75
2023/01/11 08:48:59;;;;;;;4.90;1.08;;;9.80;93.20;;;;;;5092423;28;20078;-75
2023/01/11 08:51:25;;;;;;;2.83;0.90;;;9.90;93.20;;;;;;5079633;28;20040;-81
2023/01/11 08:53:51;;;;;;;3.35;0.90;;;9.80;93.20;;;;;;5059787;28;20088;-78
2023/01/11 08:56:17;;;;;;;3.05;0.80;;;9.70;93.10;;;;;;5058204;28;20040;-83
2023/01/11 08:58:43;;;;;;;2.85;0.70;;;9.80;93.10;;;;;;5079211;28;20057;-79
2023/01/11 09:01:09;;;;;;;2.92;1.00;;;9.80;93.10;;;;;;5079222;28;20036;-81
2023/01/11 09:03:35;;;;;;;1.38;0.70;;;9.80;93.10;;;;;;5060496;28;20043;-80
2023/01/11 09:06:01;;;;;;;2.45;0.60;;;9.70;93.10;;;;;;5077165;28;20492;-80
2023/01/11 09:08:27;;;;;;;2.03;0.80;;;9.70;93.10;;;;;;5077208;28;20047;-81
2023/01/11 09:10:55;;;;;;;4.80;1.27;;;9.60;93.10;;;;;;5060091;28;20038;-80
2023/01/11 09:13:21;;;;;;;2.65;0.77;;;9.60;93.20;;;;;;5060774;28;20036;-82
2023/01/11 09:15:47;;;;;;;3.25;0.80;;;9.60;93.20;;;;;;5063533;28;20135;-79
2023/01/11 09:18:13;;;;;;;3.45;0.93;;;9.60;93.20;;;;;;5062147;28;20068;-80
2023/01/11 09:20:39;;;;;;;2.38;1.00;;;9.50;93.10;;;;;;5061503;28;20474;-82
2023/01/11 09:23:05;;;;;;;3.13;0.70;;;9.50;93.10;;;;;;5077343;28;20122;-81
2023/01/11 09:25:30;;;;;;;2.10;0.70;;;9.50;93.10;;;;;;5060018;28;20052;-82
2023/01/11 09:27:56;;;;;;;4.18;0.80;;;9.50;93.10;;;;;;5094939;28;20044;-82
2023/01/11 09:30:23;;;;;;;2.40;0.55;;;9.40;93.10;;;;;;5095016;28;20043;-81
2023/01/11 09:32:50;;;;;;;2.58;0.80;;;9.50;93.20;;;;;;5059729;28;20475;-81
2023/01/11 09:35:16;;;;;;;1.25;0.60;;;9.50;93.10;;;;;;5060127;28;20044;-81
2023/01/11 09:37:52;;;;;;;8.50;0.93;;;9.30;93.10;;;;;;5094453;28;20055;-80
2023/01/11 09:40:22;;;;;;;3.72;0.70;;;9.30;93.10;;;;;;5076656;28;20040;-80
2023/01/11 09:42:56;;;;;;;2.78;0.73;;;9.30;93.20;;;;;;5076428;28;20055;-80
2023/01/11 09:45:24;;;;;;;1.90;0.52;;;9.20;93.20;;;;;;5077007;28;20044;-81
2023/01/11 09:48:02;;;;;;;4.75;0.70;;;9.20;93.20;;;;;;5076349;28;20563;-81
2023/01/11 09:50:30;;;;;;;1.42;0.50;;;9.20;93.30;;;;;;5077214;28;20380;-79
2023/01/11 09:53:02;;;;;;;1.85;0.50;;;9.20;93.30;;;;;;5059412;28;20036;-81
2023/01/11 09:55:36;;;;;;;1.17;0.47;;;9.10;93.30;;;;;;5077158;28;20402;-81
2023/01/11 09:58:27;;;;;;;3.22;0.50;;;9.10;93.30;;;;;;5095348;28;20086;-82
2023/01/11 10:01:16;;;;;;;0.85;0.43;;;9.10;93.30;;;;;;5044328;28;20044;-81
2023/01/11 10:04:23;;;;;;;3.35;0.77;;;9.10;93.30;;;;;;5063652;28;20095;-80
2023/01/11 10:07:16;;;;;;;3.22;0.68;;;9.00;93.20;;;;;;5076427;28;20052;-81
2023/01/11 10:09:59;;;;;;;0.93;0.50;;;9.10;93.20;;;;;;5045795;28;20043;-80
2023/01/11 10:12:46;;;;;;;1.35;0.60;;;9.20;93.20;;;;;;5058951;28;20032;-80
2023/01/11 10:15:34;;;;;;;2.67;0.60;;;9.20;93.20;;;;;;5076334;28;20379;-80
2023/01/11 10:18:28;;;;;;;2.90;0.75;;;9.30;93.10;;;;;;5097022;28;20506;-80
2023/01/11 10:21:10;;;;;;;3.35;0.82;;;9.30;93.00;;;;;;5083079;28;20091;-80
2023/01/11 10:23:53;;;;;;;2.72;0.70;;;9.30;92.90;;;;;;5099013;28;20040;-80
2023/01/11 10:26:34;;;;;;;1.60;0.60;;;9.40;92.90;;;;;;5076284;28;20036;-80
2023/01/11 10:29:37;;;;;;;2.13;0.88;;;9.50;92.80;;;;;;5075563;28;20047;-80
2023/01/11 10:32:21;;;;;;;2.60;0.60;;;9.50;92.80;;;;;;5065353;28;20097;-80
2023/01/11 10:40:33;;;;;;;2.45;0.70;;;9.50;92.60;;;;;;5076992;28;20081;-79
2023/01/11 10:43:21;;;;;;;3.60;0.90;;;9.70;92.60;;;;;;5049367;28;20407;-82
2023/01/11 10:45:51;;;;;;;3.63;0.90;;;9.70;92.60;;;;;;5094731;28;20417;-80
2023/01/11 10:48:33;;;;;;;4.82;1.00;;;9.80;92.50;;;;;;5043190;28;20066;-81
2023/01/11 10:51:26;;;;;;;3.50;0.90;;;9.90;92.50;;;;;;5094307;28;20047;-81
2023/01/11 10:54:12;;;;;;;3.10;0.80;;;9.90;92.50;;;;;;5078453;28;20499;-80
2023/01/11 10:57:13;;;;;;;2.20;0.98;;;10.00;92.40;;;;;;5061973;28;20051;-82
2023/01/11 10:59:58;;;;;;;5.60;1.20;;;10.10;92.30;;;;;;5064889;28;20070;-81
2023/01/11 11:02:41;;;;;;;2.67;0.90;;;10.20;92.20;;;;;;5076264;28;20056;-80
2023/01/11 11:05:42;;;;;;;1.73;0.90;;;10.20;92.10;;;;;;5095790;28;20036;-83
2023/01/11 11:08:25;;;;;;;2.55;0.90;;;10.30;92.10;;;;;;5094589;28;20088;-80
2023/01/11 11:11:22;;;;;;;3.75;0.95;;;10.30;92.00;;;;;;5077784;28;20036;-80
2023/01/11 11:14:10;;;;;;;5.97;1.27;;;10.30;91.90;;;;;;5094027;28;20082;-80
2023/01/11 11:17:08;;;;;;;5.00;1.08;;;10.30;91.90;;;;;;5057379;28;20044;-81
2023/01/11 11:19:34;;;;;;;4.47;1.20;;;10.30;91.90;;;;;;5078184;28;20040;-80
2023/01/11 11:21:59;;;;;;;2.90;1.10;;;10.30;92.20;;;;;;5074664;28;20043;-81
2023/01/11 11:24:39;;;;;;;4.55;1.42;;;10.30;91.90;;;;;;5075716;28;20044;-80
2023/01/11 11:27:33;;;;;;;4.38;0.90;;;10.30;91.90;;;;;;5074646;28;20068;-80
2023/01/11 11:29:59;;;;;;;4.55;1.13;;;10.30;91.90;;;;;;5093212;28;20032;-81
2023/01/11 11:32:30;;;;;;;4.30;1.15;;;10.30;91.90;;;;;;5076089;28;20556;-81
2023/01/11 11:34:56;;;;;;;3.03;0.90;;;10.40;91.90;;;;;;5078599;28;20028;-82
2023/01/11 11:37:30;;;;;;;3.05;1.30;;;10.40;91.80;;;;;;5075056;28;20075;-82
2023/01/11 11:39:56;;;;;;;6.65;1.33;;;10.40;91.80;;;;;;5075841;28;20518;-83
2023/01/11 11:42:23;;;;;;;3.08;0.90;;;10.50;91.70;;;;;;5078248;28;20036;-81
2023/01/11 11:45:13;;;;;;;4.93;1.10;;;10.50;91.70;;;;;;5103042;28;20133;-82
2023/01/11 11:47:39;;;;;;;3.87;1.20;;;10.50;91.60;;;;;;5069619;28;20051;-80
2023/01/11 11:50:24;;;;;;;6.28;1.30;;;10.60;91.60;;;;;;5088668;28;20040;-80
2023/01/11 11:52:55;;;;;;;6.35;1.83;;;10.50;91.50;;;;;;5084166;28;20436;-82
2023/01/11 11:55:27;;;;;;;4.90;1.52;;;10.50;91.40;;;;;;5085530;28;20112;-79
2023/01/11 11:57:55;;;;;;;4.43;1.45;;;10.50;91.40;;;;;;5087656;28;20503;-81
2023/01/11 12:00:27;;;;;;;5.53;1.52;;;10.50;91.40;;;;;;5086131;28;20511;-81
2023/01/11 12:03:00;;;;;;;6.70;1.70;;;10.50;91.30;;;;;;5083255;28;20069;-80
2023/01/11 12:05:26;;;;;;;5.38;1.33;;;10.50;91.30;;;;;;5068535;28;20578;-80
2023/01/11 12:07:53;;;;;;;3.72;1.15;;;10.60;91.30;;;;;;5100420;28;20121;-82
2023/01/11 12:10:22;;;;;;;3.90;1.27;;;10.70;91.30;;;;;;5082395;28;20047;-81
2023/01/11 12:12:54;;;;;;;5.20;1.33;;;10.70;91.20;;;;;;5068775;28;20020;-80
2023/01/11 12:15:25;;;;;;;3.05;1.27;;;10.70;91.20;;;;;;5083151;28;20361;-81
2023/01/11 12:17:53;;;;;;;4.30;1.40;;;10.60;91.10;;;;;;5086676;28;20048;-81
2023/01/11 12:20:29;;;;;;;4.25;1.23;;;10.70;91.10;;;;;;5104204;28;20134;-81
2023/01/11 12:23:11;;;;;;;5.85;1.50;;;10.60;91.00;;;;;;5105918;28;20040;-81
2023/01/11 12:25:51;;;;;;;4.03;1.30;;;10.70;91.00;;;;;;5100830;28;20040;-81
2023/01/11 12:28:48;;;;;;;4.85;1.30;;;10.70;90.90;;;;;;5093302;28;20043;-81
2023/01/11 12:31:34;;;;;;;4.18;1.10;;;10.70;90.90;;;;;;5104887;28;20062;-80
2023/01/11 12:34:38;;;;;;;5.32;1.15;;;10.70;90.90;;;;;;5107587;28;20127;-80
2023/01/11 12:37:38;;;;;;;4.28;1.20;;;10.70;90.90;;;;;;5087665;28;20044;-81
2023/01/11 12:40:18;;;;;;;4.80;1.33;;;10.60;90.80;;;;;;5106621;28;20092;-80
2023/01/11 12:43:19;;;;;;;5.65;1.38;;;10.60;90.80;;;;;;5085529;28;20050;-81
2023/01/11 12:45:58;;;;;;;7.05;1.65;;;10.50;90.80;;;;;;5106608;28;20032;-81
2023/01/11 12:48:43;;;;;;;5.53;1.35;;;10.50;90.80;;;;;;5062890;28;20040;-80
2023/01/11 12:51:39;;;;;;;3.88;1.35;;;10.50;90.80;;;;;;5076065;28;20040;-80
2023/01/11 12:54:25;;;;;;;5.22;1.30;;;10.50;90.70;;;;;;5094976;28;20145;-80
2023/01/11 12:57:14;;;;;;;5.50;1.27;;;10.50;90.80;;;;;;5067470;28;20044;-81
2023/01/11 13:00:10;;;;;;;5.57;1.40;;;10.50;90.70;;;;;;5062737;28;20062;-81
2023/01/11 13:03:11;;;;;;;6.55;1.80;;;10.50;90.50;;;;;;5077860;28;20048;-80
2023/01/11 13:05:50;;;;;;;;;;;10.60;90.50;;;;;;5068204;28;20054;-80
2023/01/11 13:08:41;;;;;;;7.72;1.65;;;10.50;90.40;;;;;;5095804;28;19916;-81
2023/01/11 13:11:35;;;;;;;7.10;1.80;;;10.60;90.30;;;;;;5095190;28;20479;-80
2023/01/11 13:14:18;;;;;;;5.93;1.33;;;10.60;90.20;;;;;;5078943;28;20395;-81
2023/01/11 13:16:57;;;;;;;4.95;1.70;;;10.60;90.20;;;;;;5083517;28;20044;-81
2023/01/11 13:19:36;;;;;;;7.47;1.48;;;10.60;90.20;;;;;;5065316;28;20052;-80
2023/01/11 13:22:05;;;;;;;6.05;1.70;;;10.60;90.00;;;;;;5081159;28;20044;-82
2023/01/11 13:24:31;;;;;;;6.10;1.58;;;10.60;90.00;;;;;;5077734;28;20040;-81
2023/01/11 13:27:01;;;;;;;3.60;1.23;;;10.60;90.00;;;;;;5078196;28;20122;-81
2023/01/11 13:29:31;;;;;;;4.07;1.40;;;10.60;90.00;;;;;;5061131;28;20059;-81
2023/01/11 13:32:01;;;;;;;3.75;1.33;;;10.60;90.00;;;;;;5081042;28;20134;-81
2023/01/11 13:34:34;;;;;;;5.57;1.25;;;10.60;89.70;;;;;;5080034;28;20040;-80
2023/01/11 13:37:07;;;;;;;5.22;1.33;;;10.60;89.80;;;;;;5078038;28;20521;-81
2023/01/11 13:39:53;;;;;;;6.40;1.58;;;10.60;90.00;;;;;;5078269;28;20386;-81
2023/01/11 13:42:26;;;;;;;3.70;1.48;;;10.60;89.80;;;;;;5061931;28;20506;-81
2023/01/11 13:45:00;;;;;;;5.53;1.48;;;10.60;89.70;;;;;;5062454;28;20040;-81
2023/01/11 13:47:50;;;;;;;6.03;1.65;;;10.70;89.70;;;;;;5076601;28;20048;-80